sensor_id;sensor_type;location;lat;lon;timestamp;temperature;humidity
52543;DHT22;38449;52.696;6.186;2023-09-07T00:01:20;21.20;99.90
52543;DHT22;38449;52.696;6.186;2023-09-07T00:03:52;21.20;99.90
52543;DHT22;38449;52.696;6.186;2023-09-07T00:06:46;21.10;99.90
52543;DHT22;38449;52.696;6.186;2023-09-07T00:09:18;21.10;99.90
52543;DHT22;38449;52.696;6.186;2023-09-07T00:12:12;21.10;99.90
52543;DHT22;38449;52.696;6.186;2023-09-07T00:14:44;21.00;99.90
52543;DHT22;38449;52.696;6.186;2023-09-07T00:17:38;21.00;99.90
52543;DHT22;38449;52.696;6.186;2023-09-07T00:20:11;21.10;99.90
52543;DHT22;38449;52.696;6.186;2023-09-07T00:23:05;21.00;99.90
52543;DHT22;38449;52.696;6.186;2023-09-07T00:25:38;21.00;99.90
52543;DHT22;38449;52.696;6.186;2023-09-07T00:28:32;21.00;99.90
52543;DHT22;38449;52.696;6.186;2023-09-07T00:31:04;21.00;99.90
52543;DHT22;38449;52.696;6.186;2023-09-07T00:33:58;20.90;99.90
52543;DHT22;38449;52.696;6.186;2023-09-07T00:36:30;21.00;99.90
52543;DHT22;38449;52.696;6.186;2023-09-07T00:39:24;20.90;99.90
52543;DHT22;38449;52.696;6.186;2023-09-07T00:41:56;20.80;99.90
52543;DHT22;38449;52.696;6.186;2023-09-07T00:44:50;20.80;99.90
52543;DHT22;38449;52.696;6.186;2023-09-07T00:47:22;20.80;99.90
52543;DHT22;38449;52.696;6.186;2023-09-07T00:50:16;20.80;99.90
52543;DHT22;38449;52.696;6.186;2023-09-07T00:52:49;20.70;99.90
52543;DHT22;38449;52.696;6.186;2023-09-07T00:55:42;20.70;99.90
52543;DHT22;38449;52.696;6.186;2023-09-07T00:58:15;20.70;99.90
52543;DHT22;38449;52.696;6.186;2023-09-07T01:01:08;20.70;99.90
52543;DHT22;38449;52.696;6.186;2023-09-07T01:03:42;20.70;99.90
52543;DHT22;38449;52.696;6.186;2023-09-07T01:06:40;20.70;99.90
52543;DHT22;38449;52.696;6.186;2023-09-07T01:09:20;20.60;99.90
52543;DHT22;38449;52.696;6.186;2023-09-07T01:12:15;20.60;99.90
52543;DHT22;38449;52.696;6.186;2023-09-07T01:14:48;20.60;99.90
52543;DHT22;38449;52.696;6.186;2023-09-07T01:17:41;20.50;99.90
52543;DHT22;38449;52.696;6.186;2023-09-07T01:20:15;20.50;99.90
52543;DHT22;38449;52.696;6.186;2023-09-07T01:23:09;20.50;99.90
52543;DHT22;38449;52.696;6.186;2023-09-07T01:25:43;20.60;99.90
52543;DHT22;38449;52.696;6.186;2023-09-07T01:28:37;20.50;99.90
52543;DHT22;38449;52.696;6.186;2023-09-07T01:31:10;20.50;99.90
52543;DHT22;38449;52.696;6.186;2023-09-07T01:34:03;20.50;99.90
52543;DHT22;38449;52.696;6.186;2023-09-07T01:36:37;20.50;99.90
52543;DHT22;38449;52.696;6.186;2023-09-07T01:39:30;20.40;99.90
52543;DHT22;38449;52.696;6.186;2023-09-07T01:42:03;20.40;99.90
52543;DHT22;38449;52.696;6.186;2023-09-07T01:44:56;20.40;99.90
52543;DHT22;38449;52.696;6.186;2023-09-07T01:47:29;20.30;99.90
52543;DHT22;38449;52.696;6.186;2023-09-07T01:50:22;20.30;99.90
52543;DHT22;38449;52.696;6.186;2023-09-07T01:52:55;20.30;99.90
52543;DHT22;38449;52.696;6.186;2023-09-07T01:55:53;20.30;99.90
52543;DHT22;38449;52.696;6.186;2023-09-07T01:58:26;20.30;99.90
52543;DHT22;38449;52.696;6.186;2023-09-07T02:01:26;20.20;99.90
52543;DHT22;38449;52.696;6.186;2023-09-07T02:04:00;20.20;99.90
52543;DHT22;38449;52.696;6.186;2023-09-07T02:06:53;20.20;99.90
52543;DHT22;38449;52.696;6.186;2023-09-07T02:09:26;20.20;99.90
52543;DHT22;38449;52.696;6.186;2023-09-07T02:12:19;20.20;99.90
52543;DHT22;38449;52.696;6.186;2023-09-07T02:14:52;20.10;99.90
52543;DHT22;38449;52.696;6.186;2023-09-07T02:17:45;20.10;99.90
52543;DHT22;38449;52.696;6.186;2023-09-07T02:20:18;20.10;99.90
52543;DHT22;38449;52.696;6.186;2023-09-07T02:23:11;20.00;99.90
52543;DHT22;38449;52.696;6.186;2023-09-07T02:25:44;20.00;99.90
52543;DHT22;38449;52.696;6.186;2023-09-07T02:28:37;20.00;99.90
52543;DHT22;38449;52.696;6.186;2023-09-07T02:31:10;20.00;99.90
52543;DHT22;38449;52.696;6.186;2023-09-07T02:34:03;19.90;99.90
52543;DHT22;38449;52.696;6.186;2023-09-07T02:36:36;19.90;99.90
52543;DHT22;38449;52.696;6.186;2023-09-07T02:39:29;19.90;99.90
52543;DHT22;38449;52.696;6.186;2023-09-07T02:42:02;19.90;99.90
52543;DHT22;38449;52.696;6.186;2023-09-07T02:44:55;19.90;99.90
52543;DHT22;38449;52.696;6.186;2023-09-07T02:47:28;20.00;99.90
52543;DHT22;38449;52.696;6.186;2023-09-07T02:50:21;19.80;99.90
52543;DHT22;38449;52.696;6.186;2023-09-07T02:52:55;19.80;99.90
52543;DHT22;38449;52.696;6.186;2023-09-07T02:55:50;19.80;99.90
52543;DHT22;38449;52.696;6.186;2023-09-07T02:58:23;19.80;99.90
52543;DHT22;38449;52.696;6.186;2023-09-07T03:01:16;19.70;99.90
52543;DHT22;38449;52.696;6.186;2023-09-07T03:03:53;19.70;99.90
52543;DHT22;38449;52.696;6.186;2023-09-07T03:06:46;19.50;99.90
52543;DHT22;38449;52.696;6.186;2023-09-07T03:09:19;19.60;99.90
52543;DHT22;38449;52.696;6.186;2023-09-07T03:12:12;19.50;99.90
52543;DHT22;38449;52.696;6.186;2023-09-07T03:14:45;19.60;99.90
52543;DHT22;38449;52.696;6.186;2023-09-07T03:17:38;19.50;99.90
52543;DHT22;38449;52.696;6.186;2023-09-07T03:20:11;19.50;99.90
52543;DHT22;38449;52.696;6.186;2023-09-07T03:23:04;19.50;99.90
52543;DHT22;38449;52.696;6.186;2023-09-07T03:25:38;19.50;99.90
52543;DHT22;38449;52.696;6.186;2023-09-07T03:28:31;19.40;99.90
52543;DHT22;38449;52.696;6.186;2023-09-07T03:31:04;19.40;99.90
52543;DHT22;38449;52.696;6.186;2023-09-07T03:33:57;19.30;99.90
52543;DHT22;38449;52.696;6.186;2023-09-07T03:36:30;19.30;99.90
52543;DHT22;38449;52.696;6.186;2023-09-07T03:39:23;19.30;99.90
52543;DHT22;38449;52.696;6.186;2023-09-07T03:42:16;19.30;99.90
52543;DHT22;38449;52.696;6.186;2023-09-07T03:44:49;19.20;99.90
52543;DHT22;38449;52.696;6.186;2023-09-07T03:47:42;19.20;99.90
52543;DHT22;38449;52.696;6.186;2023-09-07T03:50:35;19.10;99.90
52543;DHT22;38449;52.696;6.186;2023-09-07T03:53:08;19.00;99.90
52543;DHT22;38449;52.696;6.186;2023-09-07T03:56:02;19.10;99.90
52543;DHT22;38449;52.696;6.186;2023-09-07T03:58:36;19.00;99.90
52543;DHT22;38449;52.696;6.186;2023-09-07T04:01:29;19.10;99.90
52543;DHT22;38449;52.696;6.186;2023-09-07T04:04:02;19.10;99.90
52543;DHT22;38449;52.696;6.186;2023-09-07T04:06:55;19.00;99.90
52543;DHT22;38449;52.696;6.186;2023-09-07T04:09:28;19.00;99.90
52543;DHT22;38449;52.696;6.186;2023-09-07T04:12:21;19.00;99.90
52543;DHT22;38449;52.696;6.186;2023-09-07T04:14:54;18.90;99.90
52543;DHT22;38449;52.696;6.186;2023-09-07T04:17:47;18.90;99.90
52543;DHT22;38449;52.696;6.186;2023-09-07T04:20:20;18.90;99.90
52543;DHT22;38449;52.696;6.186;2023-09-07T04:23:15;18.80;99.90
52543;DHT22;38449;52.696;6.186;2023-09-07T04:25:48;18.80;99.90
52543;DHT22;38449;52.696;6.186;2023-09-07T04:28:41;18.80;99.90
52543;DHT22;38449;52.696;6.186;2023-09-07T04:31:14;18.70;99.90
52543;DHT22;38449;52.696;6.186;2023-09-07T04:34:07;18.70;99.90
52543;DHT22;38449;52.696;6.186;2023-09-07T04:36:40;18.50;99.90
52543;DHT22;38449;52.696;6.186;2023-09-07T04:39:33;18.60;99.90
52543;DHT22;38449;52.696;6.186;2023-09-07T04:42:06;18.50;99.90
52543;DHT22;38449;52.696;6.186;2023-09-07T04:44:59;18.50;99.90
52543;DHT22;38449;52.696;6.186;2023-09-07T04:47:32;18.50;99.90
52543;DHT22;38449;52.696;6.186;2023-09-07T04:50:25;18.40;99.90
52543;DHT22;38449;52.696;6.186;2023-09-07T04:52:58;18.40;99.90
52543;DHT22;38449;52.696;6.186;2023-09-07T04:55:51;18.40;99.90
52543;DHT22;38449;52.696;6.186;2023-09-07T04:58:24;18.40;99.90
52543;DHT22;38449;52.696;6.186;2023-09-07T05:01:17;18.30;99.90
52543;DHT22;38449;52.696;6.186;2023-09-07T05:03:50;18.40;99.90
52543;DHT22;38449;52.696;6.186;2023-09-07T05:06:43;18.40;99.90
52543;DHT22;38449;52.696;6.186;2023-09-07T05:09:16;18.30;99.90
52543;DHT22;38449;52.696;6.186;2023-09-07T05:12:10;18.30;99.90
52543;DHT22;38449;52.696;6.186;2023-09-07T05:14:43;18.20;99.90
52543;DHT22;38449;52.696;6.186;2023-09-07T05:17:36;18.20;99.90
52543;DHT22;38449;52.696;6.186;2023-09-07T05:20:10;18.20;99.90
52543;DHT22;38449;52.696;6.186;2023-09-07T05:23:03;18.20;99.90
52543;DHT22;38449;52.696;6.186;2023-09-07T05:25:43;18.20;99.90
52543;DHT22;38449;52.696;6.186;2023-09-07T05:28:40;18.20;99.90
52543;DHT22;38449;52.696;6.186;2023-09-07T05:31:14;18.20;99.90
52543;DHT22;38449;52.696;6.186;2023-09-07T05:34:07;18.20;99.90
52543;DHT22;38449;52.696;6.186;2023-09-07T05:36:40;18.20;99.90
52543;DHT22;38449;52.696;6.186;2023-09-07T05:39:33;18.30;99.90
52543;DHT22;38449;52.696;6.186;2023-09-07T05:42:06;18.30;99.90
52543;DHT22;38449;52.696;6.186;2023-09-07T05:44:59;18.50;99.90
52543;DHT22;38449;52.696;6.186;2023-09-07T05:47:33;19.20;99.90
52543;DHT22;38449;52.696;6.186;2023-09-07T05:50:28;20.10;99.90
52543;DHT22;38449;52.696;6.186;2023-09-07T05:53:21;20.90;99.90
52543;DHT22;38449;52.696;6.186;2023-09-07T05:55:54;21.40;99.90
52543;DHT22;38449;52.696;6.186;2023-09-07T05:58:47;21.90;99.90
52543;DHT22;38449;52.696;6.186;2023-09-07T06:01:20;22.30;99.90
52543;DHT22;38449;52.696;6.186;2023-09-07T06:04:13;22.50;99.90
52543;DHT22;38449;52.696;6.186;2023-09-07T06:06:47;22.90;99.90
52543;DHT22;38449;52.696;6.186;2023-09-07T06:09:40;23.00;99.90
52543;DHT22;38449;52.696;6.186;2023-09-07T06:12:14;23.30;99.90
52543;DHT22;38449;52.696;6.186;2023-09-07T06:15:08;23.60;99.90
52543;DHT22;38449;52.696;6.186;2023-09-07T06:17:41;23.80;99.90
52543;DHT22;38449;52.696;6.186;2023-09-07T06:20:35;23.90;99.90
52543;DHT22;38449;52.696;6.186;2023-09-07T06:23:08;23.80;99.90
52543;DHT22;38449;52.696;6.186;2023-09-07T06:26:01;23.80;99.90
52543;DHT22;38449;52.696;6.186;2023-09-07T06:28:35;23.80;99.90
52543;DHT22;38449;52.696;6.186;2023-09-07T06:31:28;24.00;99.90
52543;DHT22;38449;52.696;6.186;2023-09-07T06:34:01;24.00;99.90
52543;DHT22;38449;52.696;6.186;2023-09-07T06:36:54;24.00;99.90
52543;DHT22;38449;52.696;6.186;2023-09-07T06:39:27;24.40;99.90
52543;DHT22;38449;52.696;6.186;2023-09-07T06:42:20;24.30;99.90
52543;DHT22;38449;52.696;6.186;2023-09-07T06:44:53;24.40;99.90
52543;DHT22;38449;52.696;6.186;2023-09-07T06:47:49;24.30;99.90
52543;DHT22;38449;52.696;6.186;2023-09-07T06:50:42;24.70;99.90
52543;DHT22;38449;52.696;6.186;2023-09-07T06:53:15;24.80;99.90
52543;DHT22;38449;52.696;6.186;2023-09-07T06:56:08;25.00;99.90
52543;DHT22;38449;52.696;6.186;2023-09-07T06:58:41;25.00;99.90
52543;DHT22;38449;52.696;6.186;2023-09-07T07:01:34;24.80;99.90
52543;DHT22;38449;52.696;6.186;2023-09-07T07:04:08;24.70;99.90
52543;DHT22;38449;52.696;6.186;2023-09-07T07:07:01;24.30;99.90
52543;DHT22;38449;52.696;6.186;2023-09-07T07:09:36;24.00;99.90
52543;DHT22;38449;52.696;6.186;2023-09-07T07:12:29;23.80;99.90
52543;DHT22;38449;52.696;6.186;2023-09-07T07:15:04;23.70;99.90
52543;DHT22;38449;52.696;6.186;2023-09-07T07:17:57;23.60;99.90
52543;DHT22;38449;52.696;6.186;2023-09-07T07:20:30;23.60;99.90
52543;DHT22;38449;52.696;6.186;2023-09-07T07:23:23;23.50;99.90
52543;DHT22;38449;52.696;6.186;2023-09-07T07:25:56;23.50;99.90
52543;DHT22;38449;52.696;6.186;2023-09-07T07:28:49;23.40;99.90
52543;DHT22;38449;52.696;6.186;2023-09-07T07:31:22;23.40;99.90
52543;DHT22;38449;52.696;6.186;2023-09-07T07:34:15;23.50;99.90
52543;DHT22;38449;52.696;6.186;2023-09-07T07:36:48;23.60;99.90
52543;DHT22;38449;52.696;6.186;2023-09-07T07:39:41;23.70;99.90
52543;DHT22;38449;52.696;6.186;2023-09-07T07:42:14;23.60;99.90
52543;DHT22;38449;52.696;6.186;2023-09-07T07:45:08;23.80;99.90
52543;DHT22;38449;52.696;6.186;2023-09-07T07:47:41;23.80;99.90
52543;DHT22;38449;52.696;6.186;2023-09-07T07:50:38;23.90;99.90
52543;DHT22;38449;52.696;6.186;2023-09-07T07:53:31;24.00;99.90
52543;DHT22;38449;52.696;6.186;2023-09-07T07:56:04;24.10;99.90
52543;DHT22;38449;52.696;6.186;2023-09-07T07:58:57;24.10;99.90
52543;DHT22;38449;52.696;6.186;2023-09-07T08:01:30;24.20;99.90
52543;DHT22;38449;52.696;6.186;2023-09-07T08:04:23;24.30;99.90
52543;DHT22;38449;52.696;6.186;2023-09-07T08:06:56;24.30;99.90
52543;DHT22;38449;52.696;6.186;2023-09-07T08:09:49;24.40;99.90
52543;DHT22;38449;52.696;6.186;2023-09-07T08:12:23;24.30;99.90
52543;DHT22;38449;52.696;6.186;2023-09-07T08:15:16;24.40;99.90
52543;DHT22;38449;52.696;6.186;2023-09-07T08:17:52;24.40;99.90
52543;DHT22;38449;52.696;6.186;2023-09-07T08:20:45;24.50;99.90
52543;DHT22;38449;52.696;6.186;2023-09-07T08:23:18;24.50;99.90
52543;DHT22;38449;52.696;6.186;2023-09-07T08:26:11;24.60;99.90
52543;DHT22;38449;52.696;6.186;2023-09-07T08:28:52;24.60;99.90
52543;DHT22;38449;52.696;6.186;2023-09-07T08:31:44;24.70;99.90
52543;DHT22;38449;52.696;6.186;2023-09-07T08:34:17;24.80;99.90
52543;DHT22;38449;52.696;6.186;2023-09-07T08:37:10;24.80;99.90
52543;DHT22;38449;52.696;6.186;2023-09-07T08:39:43;24.90;99.90
52543;DHT22;38449;52.696;6.186;2023-09-07T08:42:37;25.00;99.90
52543;DHT22;38449;52.696;6.186;2023-09-07T08:45:13;25.00;99.90
52543;DHT22;38449;52.696;6.186;2023-09-07T08:48:08;25.20;99.90
52543;DHT22;38449;52.696;6.186;2023-09-07T08:51:12;25.10;99.90
52543;DHT22;38449;52.696;6.186;2023-09-07T08:54:07;25.20;99.90
52543;DHT22;38449;52.696;6.186;2023-09-07T08:56:41;25.30;99.90
52543;DHT22;38449;52.696;6.186;2023-09-07T08:59:33;25.30;99.90
52543;DHT22;38449;52.696;6.186;2023-09-07T09:02:10;25.30;99.90
52543;DHT22;38449;52.696;6.186;2023-09-07T09:05:03;25.30;99.90
52543;DHT22;38449;52.696;6.186;2023-09-07T09:07:37;25.30;99.90
52543;DHT22;38449;52.696;6.186;2023-09-07T09:10:31;25.40;99.90
52543;DHT22;38449;52.696;6.186;2023-09-07T09:13:03;25.40;99.90
52543;DHT22;38449;52.696;6.186;2023-09-07T09:15:59;25.40;99.90
52543;DHT22;38449;52.696;6.186;2023-09-07T09:18:33;25.60;99.90
52543;DHT22;38449;52.696;6.186;2023-09-07T09:21:27;25.70;99.90
52543;DHT22;38449;52.696;6.186;2023-09-07T09:23:59;25.70;99.90
52543;DHT22;38449;52.696;6.186;2023-09-07T09:26:52;25.80;99.90
52543;DHT22;38449;52.696;6.186;2023-09-07T09:29:25;26.00;99.90
52543;DHT22;38449;52.696;6.186;2023-09-07T09:32:19;26.10;99.90
52543;DHT22;38449;52.696;6.186;2023-09-07T09:34:52;26.20;99.90
52543;DHT22;38449;52.696;6.186;2023-09-07T09:37:48;26.30;99.90
52543;DHT22;38449;52.696;6.186;2023-09-07T09:40:23;26.20;99.90
52543;DHT22;38449;52.696;6.186;2023-09-07T09:43:20;26.20;99.90
52543;DHT22;38449;52.696;6.186;2023-09-07T09:45:53;26.20;99.90
52543;DHT22;38449;52.696;6.186;2023-09-07T09:48:46;26.30;99.90
52543;DHT22;38449;52.696;6.186;2023-09-07T09:51:40;26.40;99.90
52543;DHT22;38449;52.696;6.186;2023-09-07T09:54:16;26.50;99.90
52543;DHT22;38449;52.696;6.186;2023-09-07T09:57:10;26.60;99.90
52543;DHT22;38449;52.696;6.186;2023-09-07T09:59:42;26.70;99.90
52543;DHT22;38449;52.696;6.186;2023-09-07T10:02:37;26.70;99.90
52543;DHT22;38449;52.696;6.186;2023-09-07T10:05:12;26.80;99.90
52543;DHT22;38449;52.696;6.186;2023-09-07T10:08:12;26.80;99.90
52543;DHT22;38449;52.696;6.186;2023-09-07T10:10:52;26.90;99.90
52543;DHT22;38449;52.696;6.186;2023-09-07T10:13:45;27.00;99.90
52543;DHT22;38449;52.696;6.186;2023-09-07T10:16:17;27.10;99.90
52543;DHT22;38449;52.696;6.186;2023-09-07T10:19:23;27.20;99.90
52543;DHT22;38449;52.696;6.186;2023-09-07T10:21:56;27.30;99.90
52543;DHT22;38449;52.696;6.186;2023-09-07T10:24:57;27.30;99.90
52543;DHT22;38449;52.696;6.186;2023-09-07T10:27:37;27.40;99.90
52543;DHT22;38449;52.696;6.186;2023-09-07T10:30:31;27.50;99.90
52543;DHT22;38449;52.696;6.186;2023-09-07T10:33:04;27.50;99.90
52543;DHT22;38449;52.696;6.186;2023-09-07T10:35:58;27.70;99.90
52543;DHT22;38449;52.696;6.186;2023-09-07T10:38:33;27.60;99.90
52543;DHT22;38449;52.696;6.186;2023-09-07T10:41:26;27.70;99.90
52543;DHT22;38449;52.696;6.186;2023-09-07T10:44:05;27.90;99.90
52543;DHT22;38449;52.696;6.186;2023-09-07T10:46:52;27.90;99.90
52543;DHT22;38449;52.696;6.186;2023-09-07T10:49:31;27.90;99.90
52543;DHT22;38449;52.696;6.186;2023-09-07T10:52:24;28.00;99.90
52543;DHT22;38449;52.696;6.186;2023-09-07T10:54:57;28.10;99.90
52543;DHT22;38449;52.696;6.186;2023-09-07T10:57:50;28.20;99.90
52543;DHT22;38449;52.696;6.186;2023-09-07T11:00:22;28.20;99.90
52543;DHT22;38449;52.696;6.186;2023-09-07T11:03:16;28.20;99.90
52543;DHT22;38449;52.696;6.186;2023-09-07T11:05:49;28.10;99.90
52543;DHT22;38449;52.696;6.186;2023-09-07T11:08:44;28.10;99.90
52543;DHT22;38449;52.696;6.186;2023-09-07T11:11:16;28.10;99.90
52543;DHT22;38449;52.696;6.186;2023-09-07T11:14:10;28.20;99.90
52543;DHT22;38449;52.696;6.186;2023-09-07T11:16:42;28.30;99.90
52543;DHT22;38449;52.696;6.186;2023-09-07T11:19:36;28.50;99.90
52543;DHT22;38449;52.696;6.186;2023-09-07T11:22:11;28.60;99.90
52543;DHT22;38449;52.696;6.186;2023-09-07T11:25:05;28.70;99.90
52543;DHT22;38449;52.696;6.186;2023-09-07T11:27:39;28.80;99.90
52543;DHT22;38449;52.696;6.186;2023-09-07T11:30:33;28.80;99.90
52543;DHT22;38449;52.696;6.186;2023-09-07T11:33:07;28.80;99.90
52543;DHT22;38449;52.696;6.186;2023-09-07T11:36:00;28.90;99.90
52543;DHT22;38449;52.696;6.186;2023-09-07T11:38:36;29.00;99.90
52543;DHT22;38449;52.696;6.186;2023-09-07T11:41:30;29.00;99.90
52543;DHT22;38449;52.696;6.186;2023-09-07T11:44:03;29.00;99.80
52543;DHT22;38449;52.696;6.186;2023-09-07T11:46:56;29.10;99.90
52543;DHT22;38449;52.696;6.186;2023-09-07T11:49:28;29.20;99.90
52543;DHT22;38449;52.696;6.186;2023-09-07T11:52:22;29.30;99.90
52543;DHT22;38449;52.696;6.186;2023-09-07T11:54:57;29.20;99.60
52543;DHT22;38449;52.696;6.186;2023-09-07T11:57:50;29.20;99.40
52543;DHT22;38449;52.696;6.186;2023-09-07T12:00:24;29.30;99.40
52543;DHT22;38449;52.696;6.186;2023-09-07T12:03:17;29.40;99.30
52543;DHT22;38449;52.696;6.186;2023-09-07T12:05:49;29.60;98.70
52543;DHT22;38449;52.696;6.186;2023-09-07T12:08:58;29.50;98.70
52543;DHT22;38449;52.696;6.186;2023-09-07T12:11:32;29.50;98.00
52543;DHT22;38449;52.696;6.186;2023-09-07T12:14:25;29.50;98.40
52543;DHT22;38449;52.696;6.186;2023-09-07T12:16:58;29.50;98.00
52543;DHT22;38449;52.696;6.186;2023-09-07T12:19:51;29.50;98.10
52543;DHT22;38449;52.696;6.186;2023-09-07T12:22:24;29.60;98.10
52543;DHT22;38449;52.696;6.186;2023-09-07T12:25:18;29.60;98.10
52543;DHT22;38449;52.696;6.186;2023-09-07T12:27:51;29.60;98.20
52543;DHT22;38449;52.696;6.186;2023-09-07T12:30:44;29.70;97.60
52543;DHT22;38449;52.696;6.186;2023-09-07T12:33:17;29.60;97.60
52543;DHT22;38449;52.696;6.186;2023-09-07T12:36:10;29.70;97.60
52543;DHT22;38449;52.696;6.186;2023-09-07T12:38:44;29.70;97.10
52543;DHT22;38449;52.696;6.186;2023-09-07T12:41:37;29.70;97.00
52543;DHT22;38449;52.696;6.186;2023-09-07T12:44:10;29.70;96.30
52543;DHT22;38449;52.696;6.186;2023-09-07T12:47:04;29.70;96.60
52543;DHT22;38449;52.696;6.186;2023-09-07T12:49:38;29.80;96.30
52543;DHT22;38449;52.696;6.186;2023-09-07T12:52:32;29.80;96.40
52543;DHT22;38449;52.696;6.186;2023-09-07T12:55:06;29.80;96.20
52543;DHT22;38449;52.696;6.186;2023-09-07T12:57:59;29.80;96.70
52543;DHT22;38449;52.696;6.186;2023-09-07T13:00:33;29.80;96.40
52543;DHT22;38449;52.696;6.186;2023-09-07T13:03:26;29.90;95.90
52543;DHT22;38449;52.696;6.186;2023-09-07T13:05:59;29.90;96.20
52543;DHT22;38449;52.696;6.186;2023-09-07T13:08:52;29.90;96.30
52543;DHT22;38449;52.696;6.186;2023-09-07T13:11:25;29.90;96.00
52543;DHT22;38449;52.696;6.186;2023-09-07T13:14:18;30.00;96.40
52543;DHT22;38449;52.696;6.186;2023-09-07T13:16:51;30.00;96.40
52543;DHT22;38449;52.696;6.186;2023-09-07T13:19:44;30.00;96.40
52543;DHT22;38449;52.696;6.186;2023-09-07T13:22:18;30.00;95.80
52543;DHT22;38449;52.696;6.186;2023-09-07T13:25:11;30.00;96.20
52543;DHT22;38449;52.696;6.186;2023-09-07T13:27:44;30.00;96.10
52543;DHT22;38449;52.696;6.186;2023-09-07T13:30:37;30.20;96.50
52543;DHT22;38449;52.696;6.186;2023-09-07T13:33:10;30.20;96.30
52543;DHT22;38449;52.696;6.186;2023-09-07T13:36:03;30.20;96.50
52543;DHT22;38449;52.696;6.186;2023-09-07T13:38:36;30.30;96.30
52543;DHT22;38449;52.696;6.186;2023-09-07T13:41:29;30.30;96.40
52543;DHT22;38449;52.696;6.186;2023-09-07T13:44:02;30.30;96.40
52543;DHT22;38449;52.696;6.186;2023-09-07T13:46:55;30.30;96.40
52543;DHT22;38449;52.696;6.186;2023-09-07T13:49:28;30.30;96.70
52543;DHT22;38449;52.696;6.186;2023-09-07T13:52:21;30.40;96.60
52543;DHT22;38449;52.696;6.186;2023-09-07T13:54:54;30.30;96.20
52543;DHT22;38449;52.696;6.186;2023-09-07T13:57:47;30.30;96.40
52543;DHT22;38449;52.696;6.186;2023-09-07T14:00:20;30.20;96.50
52543;DHT22;38449;52.696;6.186;2023-09-07T14:03:13;30.20;96.60
52543;DHT22;38449;52.696;6.186;2023-09-07T14:05:46;30.20;96.30
52543;DHT22;38449;52.696;6.186;2023-09-07T14:08:39;30.20;96.30
52543;DHT22;38449;52.696;6.186;2023-09-07T14:11:12;30.20;96.40
52543;DHT22;38449;52.696;6.186;2023-09-07T14:14:05;30.20;96.50
52543;DHT22;38449;52.696;6.186;2023-09-07T14:16:39;30.30;96.40
52543;DHT22;38449;52.696;6.186;2023-09-07T14:19:32;30.40;96.60
52543;DHT22;38449;52.696;6.186;2023-09-07T14:22:25;30.40;96.00
52543;DHT22;38449;52.696;6.186;2023-09-07T14:24:58;30.40;96.20
52543;DHT22;38449;52.696;6.186;2023-09-07T14:27:51;30.30;96.30
52543;DHT22;38449;52.696;6.186;2023-09-07T14:30:25;30.30;96.20
52543;DHT22;38449;52.696;6.186;2023-09-07T14:33:18;30.30;96.20
52543;DHT22;38449;52.696;6.186;2023-09-07T14:35:51;30.40;96.30
52543;DHT22;38449;52.696;6.186;2023-09-07T14:38:44;30.30;96.10
52543;DHT22;38449;52.696;6.186;2023-09-07T14:41:17;30.30;95.70
52543;DHT22;38449;52.696;6.186;2023-09-07T14:44:10;30.20;96.10
52543;DHT22;38449;52.696;6.186;2023-09-07T14:46:43;30.20;96.10
52543;DHT22;38449;52.696;6.186;2023-09-07T14:49:37;30.30;96.30
52543;DHT22;38449;52.696;6.186;2023-09-07T14:52:30;30.20;96.10
52543;DHT22;38449;52.696;6.186;2023-09-07T14:55:04;30.20;95.90
52543;DHT22;38449;52.696;6.186;2023-09-07T14:57:57;30.20;95.90
52543;DHT22;38449;52.696;6.186;2023-09-07T15:00:30;30.20;95.90
52543;DHT22;38449;52.696;6.186;2023-09-07T15:03:23;30.20;96.10
52543;DHT22;38449;52.696;6.186;2023-09-07T15:05:56;30.20;96.10
52543;DHT22;38449;52.696;6.186;2023-09-07T15:08:49;30.10;96.00
52543;DHT22;38449;52.696;6.186;2023-09-07T15:11:23;30.10;95.70
52543;DHT22;38449;52.696;6.186;2023-09-07T15:14:16;30.10;95.90
52543;DHT22;38449;52.696;6.186;2023-09-07T15:16:49;30.10;95.90
52543;DHT22;38449;52.696;6.186;2023-09-07T15:19:42;30.10;96.10
52543;DHT22;38449;52.696;6.186;2023-09-07T15:22:15;30.10;96.20
52543;DHT22;38449;52.696;6.186;2023-09-07T15:25:08;30.10;96.40
52543;DHT22;38449;52.696;6.186;2023-09-07T15:27:43;30.10;96.70
52543;DHT22;38449;52.696;6.186;2023-09-07T15:30:36;30.10;96.80
52543;DHT22;38449;52.696;6.186;2023-09-07T15:33:09;30.00;96.80
52543;DHT22;38449;52.696;6.186;2023-09-07T15:36:02;30.00;97.10
52543;DHT22;38449;52.696;6.186;2023-09-07T15:38:35;30.00;97.10
52543;DHT22;38449;52.696;6.186;2023-09-07T15:41:28;29.90;97.10
52543;DHT22;38449;52.696;6.186;2023-09-07T15:44:01;30.00;97.20
52543;DHT22;38449;52.696;6.186;2023-09-07T15:46:57;29.90;97.00
52543;DHT22;38449;52.696;6.186;2023-09-07T15:49:30;29.90;97.00
52543;DHT22;38449;52.696;6.186;2023-09-07T15:52:23;29.90;97.20
52543;DHT22;38449;52.696;6.186;2023-09-07T15:54:56;29.80;97.20
52543;DHT22;38449;52.696;6.186;2023-09-07T15:57:53;29.80;97.30
52543;DHT22;38449;52.696;6.186;2023-09-07T16:00:31;29.80;97.60
52543;DHT22;38449;52.696;6.186;2023-09-07T16:03:24;29.80;97.40
52543;DHT22;38449;52.696;6.186;2023-09-07T16:05:57;29.80;97.70
52543;DHT22;38449;52.696;6.186;2023-09-07T16:08:50;29.80;97.70
52543;DHT22;38449;52.696;6.186;2023-09-07T16:11:23;29.80;98.00
52543;DHT22;38449;52.696;6.186;2023-09-07T16:14:16;29.80;97.90
52543;DHT22;38449;52.696;6.186;2023-09-07T16:16:49;29.70;98.60
52543;DHT22;38449;52.696;6.186;2023-09-07T16:19:42;29.60;98.30
52543;DHT22;38449;52.696;6.186;2023-09-07T16:22:15;29.60;98.30
52543;DHT22;38449;52.696;6.186;2023-09-07T16:25:08;29.60;98.30
52543;DHT22;38449;52.696;6.186;2023-09-07T16:27:41;29.60;98.50
52543;DHT22;38449;52.696;6.186;2023-09-07T16:30:34;29.50;98.30
52543;DHT22;38449;52.696;6.186;2023-09-07T16:33:07;29.40;98.20
52543;DHT22;38449;52.696;6.186;2023-09-07T16:36:00;29.40;98.30
52543;DHT22;38449;52.696;6.186;2023-09-07T16:38:33;29.30;98.20
52543;DHT22;38449;52.696;6.186;2023-09-07T16:41:26;29.20;98.40
52543;DHT22;38449;52.696;6.186;2023-09-07T16:43:59;29.30;98.60
52543;DHT22;38449;52.696;6.186;2023-09-07T16:46:52;29.20;98.50
52543;DHT22;38449;52.696;6.186;2023-09-07T16:49:25;29.20;98.70
52543;DHT22;38449;52.696;6.186;2023-09-07T16:52:18;29.10;98.60
52543;DHT22;38449;52.696;6.186;2023-09-07T16:54:51;29.10;98.70
52543;DHT22;38449;52.696;6.186;2023-09-07T16:57:44;29.00;98.80
52543;DHT22;38449;52.696;6.186;2023-09-07T17:00:18;29.00;98.80
52543;DHT22;38449;52.696;6.186;2023-09-07T17:03:11;29.00;98.90
52543;DHT22;38449;52.696;6.186;2023-09-07T17:05:44;28.90;99.20
52543;DHT22;38449;52.696;6.186;2023-09-07T17:08:37;28.80;99.20
52543;DHT22;38449;52.696;6.186;2023-09-07T17:11:10;28.70;99.20
52543;DHT22;38449;52.696;6.186;2023-09-07T17:14:03;28.70;99.30